Time;durP1;ratioP1;P1;durP2;ratioP2;P2;SDS_P1;SDS_P2;PMS_P1;PMS_P2;Temp;Humidity;BMP_temperature;BMP_pressure;BME280_temperature;BME280_humidity;BME280_pressure;Samples;Min_cycle;Max_cycle;Signal;HPM_P1;HPM_P2
2022/11/25 00:01:20;;;;;;;86.75;41.08;;;1.60;99.90;0.60;100298;;;;562688;251;35352;-80
2022/11/25 00:03:51;;;;;;;53.47;22.20;;;1.60;99.90;0.60;100300;;;;567535;251;24132;-80
2022/11/25 00:06:24;;;;;;;65.07;20.27;;;1.60;99.90;0.60;100303;;;;567277;252;24134;-81
2022/11/25 00:08:59;;;;;;;82.43;32.33;;;1.50;99.90;0.50;100303;;;;567356;252;24143;-80
2022/11/25 00:11:27;;;;;;;83.43;36.27;;;1.50;99.90;0.50;100302;;;;567315;251;24132;-80
2022/11/25 00:13:55;;;;;;;89.40;39.33;;;1.50;99.90;0.40;100300;;;;567204;249;24116;-80
2022/11/25 00:16:26;;;;;;;96.78;42.88;;;1.50;99.90;0.40;100302;;;;562383;251;35314;-81
2022/11/25 00:18:55;;;;;;;71.13;23.43;;;1.40;99.90;0.40;100303;;;;567201;252;24148;-83
2022/11/25 00:21:19;;;;;;;71.60;23.90;;;1.40;99.90;0.40;100307;;;;566882;252;24145;-79
2022/11/25 00:24:00;;;;;;;77.10;32.13;;;1.40;99.90;0.40;100318;;;;567256;252;24109;-82
2022/11/25 00:26:27;;;;;;;82.40;36.17;;;1.40;99.90;0.40;100321;;;;567807;251;24104;-81
2022/11/25 00:28:56;;;;;;;94.70;38.10;;;1.40;99.90;0.40;100308;;;;567166;251;25147;-82
2022/11/25 00:31:23;;;;;;;91.67;36.53;;;1.50;99.90;0.50;100314;;;;566856;253;24115;-79
2022/11/25 00:33:52;;;;;;;90.90;37.53;;;1.50;99.90;0.50;100319;;;;567042;252;24147;-80
2022/11/25 00:36:25;;;;;;;88.43;36.50;;;1.50;99.90;0.50;100315;;;;567080;252;24123;-81
2022/11/25 00:38:59;;;;;;;84.87;35.77;;;1.50;99.90;0.50;100308;;;;567104;252;24108;-80
2022/11/25 00:46:57;;;;;;;84.23;35.60;;;1.50;99.90;0.60;100334;;;;567205;253;24168;-79
2022/11/25 00:49:25;;;;;;;82.50;34.73;;;1.50;99.90;0.60;100331;;;;567079;252;24133;-80
2022/11/25 00:51:53;;;;;;;80.07;35.70;;;1.60;99.90;0.60;100325;;;;567081;252;24093;-81
2022/11/25 00:54:21;;;;;;;79.17;36.90;;;1.60;99.90;0.60;100332;;;;567075;252;24091;-81
2022/11/25 00:56:52;;;;;;;77.43;34.03;;;1.60;99.90;0.60;100335;;;;567043;252;24129;-81
2022/11/25 00:59:17;;;;;;;86.63;34.60;;;1.60;99.90;0.70;100338;;;;566603;252;25158;-81
2022/11/25 01:01:48;;;;;;;84.47;35.47;;;1.60;99.90;0.60;100334;;;;566936;252;24155;-81
2022/11/25 01:04:13;;;;;;;81.50;36.23;;;1.60;99.90;0.60;100342;;;;567909;251;24141;-80
2022/11/25 01:06:42;;;;;;;80.33;35.07;;;1.60;99.90;0.60;100345;;;;568065;251;24104;-82
2022/11/25 01:09:09;;;;;;;81.90;35.83;;;1.60;99.90;0.60;100344;;;;567905;251;24118;-82
2022/11/25 01:11:37;;;;;;;88.83;37.57;;;1.60;99.90;0.60;100350;;;;555877;258;24135;-81
2022/11/25 01:14:09;;;;;;;83.10;37.43;;;1.60;99.90;0.60;100342;;;;567573;249;24115;-80
2022/11/25 01:16:36;;;;;;;89.33;35.73;;;1.50;99.90;0.50;100350;;;;567160;251;24136;-80
2022/11/25 01:19:01;;;;;;;84.77;36.27;;;1.60;99.90;0.50;100343;;;;567087;252;24092;-82
2022/11/25 01:21:29;;;;;;;84.17;36.23;;;1.50;99.90;0.50;100341;;;;567456;251;24159;-81
2022/11/25 01:24:00;;;;;;;92.40;36.60;;;1.50;99.90;0.50;100346;;;;567277;251;24168;-81
2022/11/25 01:26:35;;;;;;;87.90;36.90;;;1.60;99.90;0.60;100341;;;;567521;251;24093;-81
2022/11/25 01:29:03;;;;;;;95.37;37.03;;;1.60;99.90;0.60;100340;;;;567151;252;24124;-79
2022/11/25 01:31:31;;;;;;;91.97;36.93;;;1.60;99.90;0.60;100341;;;;567156;253;24111;-79
2022/11/25 01:33:59;;;;;;;96.40;39.30;;;1.60;99.90;0.60;100340;;;;567356;251;24137;-80
2022/11/25 01:36:28;;;;;;;100.97;40.97;;;1.60;99.90;0.50;100350;;;;567292;251;24158;-81
2022/11/25 01:38:56;;;;;;;102.30;39.40;;;1.50;99.90;0.50;100346;;;;567231;251;24129;-81
2022/11/25 01:41:24;;;;;;;107.87;41.73;;;1.50;99.90;0.50;100344;;;;567012;252;24124;-80
2022/11/25 01:44:08;;;;;;;114.77;44.17;;;1.40;99.90;0.40;100349;;;;541573;251;24162;-80
2022/11/25 01:46:51;;;;;;;112.57;41.57;;;1.40;99.90;0.30;100353;;;;566368;253;24112;-84
2022/11/25 01:49:43;;;;;;;109.20;41.87;;;1.40;99.90;0.30;100357;;;;567004;251;24112;-81
2022/11/25 01:52:11;;;;;;;109.50;39.87;;;1.30;99.90;0.30;100354;;;;567223;251;24202;-81
2022/11/25 01:54:39;;;;;;;120.70;42.20;;;1.30;99.90;0.30;100353;;;;566933;253;24136;-80
2022/11/25 01:57:12;;;;;;;103.83;38.27;;;1.30;99.90;0.20;100361;;;;554741;253;24132;-79
2022/11/25 01:59:37;;;;;;;104.63;38.33;;;1.20;99.90;0.20;100354;;;;566625;252;24095;-80
2022/11/25 02:02:08;;;;;;;96.60;36.03;;;1.20;99.90;0.10;100360;;;;567103;252;24154;-83
2022/11/25 02:04:33;;;;;;;92.63;35.37;;;1.20;99.90;0.10;100355;;;;567035;252;24143;-82
2022/11/25 02:07:00;;;;;;;83.80;34.00;;;1.10;99.90;0.00;100363;;;;567209;252;24124;-80
2022/11/25 02:09:32;;;;;;;89.27;35.57;;;1.00;99.90;0.00;100351;;;;566727;253;24125;-78
2022/11/25 02:11:57;;;;;;;80.13;32.27;;;1.00;99.90;0.00;100357;;;;566874;253;24115;-81
2022/11/25 02:14:25;;;;;;;78.80;33.13;;;1.00;99.90;0.00;100362;;;;567248;249;24112;-80
2022/11/25 02:16:53;;;;;;;83.87;34.93;;;1.00;99.90;0.00;100358;;;;568615;251;24096;-82
2022/11/25 02:19:24;;;;;;;75.00;32.33;;;1.00;99.90;0.00;100358;;;;568301;251;24101;-83
2022/11/25 02:21:54;;;;;;;74.90;32.07;;;1.00;99.90;0.00;100363;;;;567645;252;24143;-82
2022/11/25 02:24:34;;;;;;;87.97;34.40;;;1.00;99.90;0.10;100367;;;;567746;252;24118;-81
2022/11/25 02:27:05;;;;;;;92.70;33.13;;;1.10;99.90;0.10;100366;;;;567734;252;24100;-80
2022/11/25 02:29:30;;;;;;;85.83;34.27;;;1.10;99.90;0.10;100366;;;;568514;252;24092;-79
2022/11/25 02:31:58;;;;;;;81.13;33.70;;;1.10;99.90;0.00;100373;;;;568766;251;24146;-82
2022/11/25 02:34:25;;;;;;;87.37;33.50;;;1.00;99.90;0.00;100372;;;;567859;251;24094;-81
2022/11/25 02:36:56;;;;;;;85.33;33.50;;;1.10;99.90;0.10;100373;;;;567525;251;24109;-82
2022/11/25 02:39:25;;;;;;;83.33;32.53;;;1.10;99.90;0.10;100376;;;;567322;251;24097;-81
2022/11/25 02:41:50;;;;;;;86.23;33.47;;;1.10;99.90;0.10;100372;;;;567338;252;24141;-79
2022/11/25 02:44:18;;;;;;;77.97;31.13;;;1.10;99.90;0.20;100376;;;;567329;252;24113;-81
2022/11/25 02:46:46;;;;;;;83.53;31.97;;;1.20;99.90;0.20;100369;;;;567409;251;24082;-81
2022/11/25 02:49:13;;;;;;;87.03;34.33;;;1.20;99.90;0.20;100377;;;;567405;251;24100;-81
2022/11/25 02:51:45;;;;;;;80.77;32.17;;;1.20;99.90;0.30;100378;;;;567543;251;24109;-81
2022/11/25 02:54:10;;;;;;;85.50;33.57;;;1.30;99.90;0.30;100373;;;;566748;253;24146;-80
2022/11/25 02:56:39;;;;;;;78.30;31.27;;;1.30;99.90;0.30;100373;;;;567156;252;24097;-80
2022/11/25 02:59:09;;;;;;;84.13;32.83;;;1.30;99.90;0.40;100374;;;;567076;252;24100;-79
2022/11/25 03:01:37;;;;;;;91.30;33.17;;;1.40;99.90;0.40;100379;;;;566724;253;24135;-80
2022/11/25 03:04:02;;;;;;;82.53;32.57;;;1.40;99.90;0.40;100373;;;;566673;253;25151;-79
2022/11/25 03:06:29;;;;;;;89.43;34.10;;;1.40;99.90;0.40;100387;;;;567092;252;24131;-79
2022/11/25 03:09:01;;;;;;;88.07;34.83;;;1.40;99.90;0.40;100383;;;;567225;252;24206;-81
2022/11/25 03:12:17;;;;;;;89.57;33.50;;;1.40;99.90;0.40;100390;;;;566738;253;24152;-80
2022/11/25 03:13:53;;;;;;;109.17;36.50;;;1.40;99.90;0.40;100384;;;;564961;249;24115;-80
2022/11/25 03:16:21;;;;;;;100.37;36.80;;;1.50;99.90;0.50;100395;;;;567142;252;24162;-82
2022/11/25 03:18:50;;;;;;;115.73;38.90;;;1.50;99.90;0.50;100394;;;;567075;252;24143;-80
2022/11/25 03:21:20;;;;;;;127.20;38.37;;;1.50;99.90;0.50;100387;;;;567142;252;24119;-81
2022/11/25 03:23:45;;;;;;;115.77;39.03;;;1.50;99.90;0.50;100394;;;;566987;252;24143;-81
2022/11/25 03:26:14;;;;;;;118.43;38.10;;;1.50;99.90;0.50;100393;;;;567440;251;24147;-77
2022/11/25 03:28:42;;;;;;;117.53;36.30;;;1.50;99.90;0.50;100388;;;;568807;251;24132;-79
2022/11/25 03:31:12;;;;;;;121.57;37.10;;;1.50;99.90;0.50;100387;;;;568247;251;24174;-79
2022/11/25 03:33:40;;;;;;;116.80;36.27;;;1.50;99.90;0.50;100399;;;;567861;251;24109;-80
2022/11/25 03:36:08;;;;;;;119.30;39.57;;;1.50;99.90;0.50;100402;;;;567745;251;24233;-79
2022/11/25 03:38:36;;;;;;;122.30;39.33;;;1.50;99.90;0.50;100401;;;;567507;251;24104;-79
2022/11/25 03:41:04;;;;;;;147.70;37.73;;;1.50;99.90;0.60;100399;;;;567793;251;24115;-79
2022/11/25 03:43:32;;;;;;;139.43;40.17;;;1.50;99.90;0.50;100398;;;;567572;251;24162;-79
2022/11/25 03:46:00;;;;;;;127.73;38.50;;;1.50;99.90;0.50;100404;;;;567337;251;25208;-80
2022/11/25 03:48:28;;;;;;;125.83;41.13;;;1.50;99.90;0.50;100412;;;;567362;251;24090;-80
2022/11/25 03:50:56;;;;;;;114.00;37.07;;;1.50;99.90;0.40;100406;;;;567246;251;25197;-79
2022/11/25 03:53:28;;;;;;;114.73;38.50;;;1.50;99.90;0.50;100413;;;;567243;251;24116;-79
2022/11/25 03:55:51;;;;;;;138.50;41.17;;;1.50;99.90;0.50;100417;;;;567163;252;26473;-80
2022/11/25 03:58:19;;;;;;;125.23;38.40;;;1.50;99.90;0.50;100414;;;;567302;251;24137;-82
2022/11/25 04:00:48;;;;;;;117.53;36.67;;;1.50;99.90;0.50;100414;;;;567313;251;24126;-81
2022/11/25 04:03:16;;;;;;;126.00;40.43;;;1.50;99.90;0.50;100427;;;;567165;251;24093;-80
2022/11/25 04:05:46;;;;;;;117.87;40.30;;;1.50;99.90;0.40;100422;;;;567028;252;24113;-81
2022/11/25 04:08:11;;;;;;;110.93;36.47;;;1.40;99.90;0.40;100415;;;;567019;253;24089;-82
2022/11/25 04:10:39;;;;;;;111.73;37.53;;;1.40;99.90;0.50;100413;;;;567095;252;24113;-81
2022/11/25 04:13:11;;;;;;;114.50;40.10;;;1.40;99.90;0.50;100416;;;;567064;249;24119;-83
2022/11/25 04:15:35;;;;;;;161.27;41.67;;;1.50;99.90;0.50;100412;;;;567114;251;24108;-80
2022/11/25 04:18:03;;;;;;;127.00;38.03;;;1.50;99.90;0.50;100418;;;;567112;252;24151;-80
2022/11/25 04:20:31;;;;;;;113.53;40.13;;;1.50;99.90;0.50;100416;;;;567165;252;24123;-80
2022/11/25 04:22:59;;;;;;;118.57;39.90;;;1.50;99.90;0.40;100417;;;;567196;252;24126;-81
2022/11/25 04:25:27;;;;;;;123.67;38.63;;;1.40;99.90;0.30;100422;;;;567192;252;24104;-80
2022/11/25 04:27:55;;;;;;;116.73;38.97;;;1.30;99.90;0.30;100435;;;;567129;252;24132;-79
2022/11/25 04:30:22;;;;;;;98.50;36.67;;;1.30;99.90;0.20;100436;;;;567513;251;24097;-82
2022/11/25 04:32:50;;;;;;;108.80;36.97;;;1.30;99.90;0.20;100437;;;;567161;251;24139;-82
2022/11/25 04:35:18;;;;;;;110.07;38.43;;;1.20;99.90;0.20;100442;;;;567129;252;24134;-83
2022/11/25 04:37:50;;;;;;;104.83;37.53;;;1.20;99.90;0.20;100431;;;;567458;251;24143;-79
2022/11/25 04:40:15;;;;;;;111.23;38.90;;;1.20;99.90;0.20;100446;;;;568223;252;24124;-82
2022/11/25 04:42:43;;;;;;;111.43;38.40;;;1.20;99.90;0.30;100445;;;;568151;251;24146;-82
2022/11/25 04:45:11;;;;;;;97.77;35.47;;;1.20;99.90;0.30;100449;;;;567958;251;24138;-82
2022/11/25 04:47:38;;;;;;;85.70;33.00;;;1.30;99.90;0.30;100440;;;;567686;252;24086;-82
2022/11/25 04:50:06;;;;;;;97.07;35.67;;;1.30;99.90;0.30;100446;;;;567713;251;24108;-83
2022/11/25 04:52:34;;;;;;;86.33;32.77;;;1.30;99.90;0.40;100445;;;;567547;252;26332;-79
2022/11/25 04:55:02;;;;;;;87.03;32.17;;;1.30;99.90;0.40;100441;;;;567668;251;24112;-82
2022/11/25 04:57:30;;;;;;;82.27;31.90;;;1.40;99.90;0.40;100442;;;;567441;251;24159;-79
2022/11/25 04:59:58;;;;;;;80.67;31.07;;;1.40;99.90;0.40;100447;;;;567446;251;24118;-81
2022/11/25 05:02:26;;;;;;;75.53;29.60;;;1.40;99.90;0.40;100443;;;;567434;251;25214;-81
2022/11/25 05:04:54;;;;;;;75.03;29.97;;;1.40;99.90;0.40;100434;;;;567435;251;25146;-80
2022/11/25 05:07:22;;;;;;;70.37;29.07;;;1.40;99.90;0.30;100446;;;;567400;251;24143;-80
2022/11/25 05:09:54;;;;;;;67.23;28.67;;;1.40;99.90;0.40;100441;;;;567334;251;25199;-80
2022/11/25 05:12:21;;;;;;;59.30;26.03;;;1.40;99.90;0.30;100445;;;;566892;252;24094;-80
2022/11/25 05:14:52;;;;;;;69.43;30.80;;;1.40;99.90;0.30;100441;;;;567086;247;24096;-79
2022/11/25 05:17:17;;;;;;;68.40;29.37;;;1.30;99.90;0.30;100441;;;;566693;253;24105;-80
2022/11/25 05:19:45;;;;;;;72.50;30.07;;;1.30;99.90;0.30;100444;;;;567070;252;24140;-83
2022/11/25 05:22:16;;;;;;;66.03;29.57;;;1.30;99.90;0.30;100447;;;;567086;252;24104;-80
2022/11/25 05:24:41;;;;;;;67.30;27.77;;;1.30;99.90;0.30;100454;;;;566605;253;24170;-79
2022/11/25 05:27:09;;;;;;;57.77;25.83;;;1.30;99.90;0.40;100450;;;;567065;252;24135;-80
2022/11/25 05:29:37;;;;;;;59.33;26.73;;;1.40;99.90;0.40;100440;;;;567546;251;24101;-80
2022/11/25 05:32:05;;;;;;;64.33;28.57;;;1.30;99.90;0.40;100445;;;;567091;252;24085;-79
2022/11/25 05:34:33;;;;;;;63.40;26.43;;;1.40;99.90;0.40;100456;;;;566989;253;24125;-80
2022/11/25 05:37:01;;;;;;;53.38;19.45;;;1.40;99.90;0.40;100456;;;;562176;252;35330;-79
2022/11/25 05:39:29;;;;;;;46.40;16.70;;;1.40;99.90;0.40;100454;;;;567100;252;24165;-80
2022/11/25 05:41:57;;;;;;;66.12;23.35;;;1.40;99.90;0.40;100446;;;;562148;252;35455;-81
2022/11/25 05:44:25;;;;;;;46.87;15.87;;;1.40;99.90;0.40;100449;;;;567032;252;24197;-84
2022/11/25 05:46:53;;;;;;;35.53;13.50;;;1.50;99.90;0.50;100452;;;;567091;252;24104;-81
2022/11/25 05:49:21;;;;;;;45.53;15.33;;;1.50;99.90;0.50;100460;;;;567390;251;24213;-80
2022/11/25 05:51:49;;;;;;;39.87;15.37;;;1.50;99.90;0.50;100456;;;;568527;251;24124;-79
2022/11/25 05:54:18;;;;;;;44.27;20.20;;;1.50;99.90;0.50;100456;;;;567985;251;24101;-81
2022/11/25 05:56:46;;;;;;;52.17;22.77;;;1.50;99.90;0.50;100455;;;;567856;251;25126;-79
2022/11/25 05:59:14;;;;;;;55.03;24.93;;;1.50;99.90;0.50;100457;;;;567775;251;24134;-80
2022/11/25 06:01:41;;;;;;;53.77;23.10;;;1.60;99.90;0.60;100460;;;;567637;251;24117;-80
2022/11/25 06:04:13;;;;;;;59.10;25.17;;;1.60;99.90;0.60;100467;;;;567581;251;24137;-80
2022/11/25 06:06:38;;;;;;;50.60;23.23;;;1.50;99.90;0.60;100464;;;;567272;252;24093;-81
2022/11/25 06:09:06;;;;;;;52.73;23.73;;;1.60;99.90;0.60;100467;;;;567669;251;25140;-80
2022/11/25 06:11:34;;;;;;;52.93;23.00;;;1.60;99.90;0.60;100476;;;;567334;251;24112;-80
2022/11/25 06:14:05;;;;;;;50.73;22.53;;;1.60;99.90;0.60;100473;;;;567439;249;24149;-80
2022/11/25 06:16:30;;;;;;;52.03;23.47;;;1.60;99.90;0.60;100465;;;;567349;252;24113;-81
2022/11/25 06:18:58;;;;;;;51.77;22.90;;;1.60;99.90;0.60;100474;;;;567483;251;24109;-81
2022/11/25 06:21:26;;;;;;;45.47;22.40;;;1.60;99.90;0.60;100469;;;;567379;251;25198;-80
2022/11/25 06:23:54;;;;;;;59.00;28.25;;;1.60;99.90;0.60;100471;;;;562385;251;35388;-79
2022/11/25 06:26:23;;;;;;;29.87;13.23;;;1.60;99.90;0.70;100475;;;;567296;251;24143;-80
2022/11/25 06:28:53;;;;;;;50.70;20.80;;;1.60;99.90;0.70;100473;;;;567197;252;24198;-80
2022/11/25 06:31:21;;;;;;;56.07;25.50;;;1.70;99.90;0.70;100481;;;;567673;251;25145;-79
2022/11/25 06:33:52;;;;;;;58.80;25.53;;;1.70;99.90;0.70;100475;;;;567342;251;24153;-79
2022/11/25 06:36:17;;;;;;;56.17;24.93;;;1.70;99.90;0.70;100474;;;;567075;253;24152;-80
2022/11/25 06:38:47;;;;;;;54.37;25.50;;;1.70;99.90;0.70;100479;;;;567155;252;24128;-82
2022/11/25 06:41:15;;;;;;;47.80;23.53;;;1.70;99.90;0.70;100480;;;;566901;253;24109;-81
2022/11/25 06:43:44;;;;;;;51.70;24.00;;;1.70;99.90;0.70;100475;;;;567821;251;24124;-82
2022/11/25 06:46:18;;;;;;;56.23;23.33;;;1.70;99.90;0.70;100476;;;;567560;251;24149;-82
2022/11/25 06:48:43;;;;;;;53.23;24.63;;;1.70;99.90;0.70;100467;;;;566973;253;24129;-81
2022/11/25 06:51:14;;;;;;;59.17;24.27;;;1.70;99.90;0.70;100469;;;;567240;252;24181;-81
2022/11/25 06:53:42;;;;;;;53.80;24.57;;;1.70;99.90;0.70;100469;;;;566892;253;24133;-81
2022/11/25 06:56:12;;;;;;;50.23;23.20;;;1.70;99.90;0.80;100475;;;;566956;252;24160;-80
2022/11/25 06:58:44;;;;;;;51.90;23.23;;;1.80;99.90;0.80;100472;;;;567298;252;24116;-82
2022/11/25 07:01:13;;;;;;;56.60;23.37;;;1.80;99.90;0.80;100476;;;;567221;251;24135;-82
2022/11/25 07:03:44;;;;;;;48.63;23.60;;;1.80;99.90;0.80;100481;;;;568466;251;24119;-82
2022/11/25 07:06:09;;;;;;;51.67;23.40;;;1.80;99.90;0.80;100480;;;;567629;252;25137;-80
2022/11/25 07:08:37;;;;;;;49.97;22.83;;;1.80;99.90;0.80;100486;;;;567915;251;24108;-82
2022/11/25 07:11:05;;;;;;;48.70;22.93;;;1.80;99.90;0.80;100481;;;;567821;251;24127;-82
2022/11/25 07:13:36;;;;;;;46.63;22.77;;;1.80;99.90;0.90;100490;;;;567148;249;24135;-82
2022/11/25 07:16:00;;;;;;;48.47;21.53;;;1.80;99.90;0.90;100485;;;;567513;252;24136;-82
2022/11/25 07:18:37;;;;;;;45.63;19.70;;;1.80;99.90;0.90;100484;;;;567477;252;24202;-81
2022/11/25 07:21:14;;;;;;;45.57;20.27;;;1.90;99.90;0.90;100489;;;;566784;252;24164;-80
2022/11/25 07:23:42;;;;;;;47.90;20.97;;;1.90;99.90;0.90;100484;;;;555834;256;24123;-81
2022/11/25 07:26:06;;;;;;;46.77;20.63;;;1.90;99.90;1.00;100485;;;;567019;251;24105;-83
2022/11/25 07:28:34;;;;;;;46.30;21.37;;;1.90;99.90;1.00;100484;;;;555424;257;24151;-80
2022/11/25 07:31:17;;;;;;;46.43;22.67;;;2.00;99.90;1.00;100487;;;;567799;251;24089;-81
2022/11/25 07:33:45;;;;;;;45.33;21.37;;;2.00;99.90;1.10;100498;;;;567340;252;24149;-82
2022/11/25 07:36:13;;;;;;;53.10;23.23;;;2.00;99.90;1.10;100492;;;;567260;251;24096;-79
2022/11/25 07:38:40;;;;;;;43.63;21.80;;;2.00;99.90;1.10;100489;;;;567040;251;24105;-80
2022/11/25 07:41:08;;;;;;;45.00;20.93;;;2.10;99.90;1.20;100486;;;;567048;252;24111;-79
2022/11/25 07:43:36;;;;;;;48.90;22.62;;;2.10;99.90;1.20;100492;;;;562144;252;35366;-80
2022/11/25 07:46:25;;;;;;;38.83;13.07;;;2.20;99.90;1.20;100499;;;;567161;252;24137;-82
2022/11/25 07:48:53;;;;;;;29.37;13.77;;;2.20;99.90;1.20;100495;;;;566995;253;24099;-81
2022/11/25 07:51:24;;;;;;;36.63;15.37;;;2.20;99.90;1.30;100509;;;;567108;252;24142;-82
2022/11/25 07:53:55;;;;;;;36.53;15.07;;;2.20;99.90;1.30;100503;;;;566939;253;25223;-81
2022/11/25 07:56:20;;;;;;;38.60;13.43;;;2.20;99.90;1.30;100504;;;;566869;252;24089;-81
2022/11/25 07:58:47;;;;;;;34.93;14.23;;;2.30;99.90;1.30;100499;;;;567115;252;24132;-82
2022/11/25 08:01:15;;;;;;;46.50;17.87;;;2.30;99.90;1.40;100507;;;;566888;253;24139;-83
2022/11/25 08:03:46;;;;;;;42.70;19.97;;;2.30;99.90;1.40;100502;;;;567127;252;24097;-83
2022/11/25 08:06:12;;;;;;;46.53;18.77;;;2.30;99.90;1.40;100504;;;;566739;253;24139;-82
2022/11/25 08:08:40;;;;;;;44.73;20.17;;;2.30;99.90;1.40;100506;;;;567147;251;24178;-80
2022/11/25 08:11:10;;;;;;;40.33;19.63;;;2.30;99.90;1.40;100507;;;;567002;253;24155;-82
2022/11/25 08:13:42;;;;;;;44.17;20.00;;;2.30;99.90;1.40;100502;;;;568105;248;24145;-83
2022/11/25 08:16:09;;;;;;;46.50;20.63;;;2.40;99.90;1.50;100504;;;;567633;252;24101;-80
2022/11/25 08:18:34;;;;;;;44.63;19.87;;;2.40;99.90;1.50;100513;;;;567631;252;24096;-80
2022/11/25 08:21:06;;;;;;;43.20;17.90;;;2.50;99.90;1.60;100505;;;;567912;251;24094;-80
2022/11/25 08:23:30;;;;;;;39.20;18.30;;;2.50;99.90;1.60;100506;;;;567401;252;24096;-79
2022/11/25 08:25:59;;;;;;;40.27;17.87;;;2.60;99.90;1.70;100503;;;;567542;251;24163;-79
2022/11/25 08:28:26;;;;;;;42.27;19.50;;;2.60;99.90;1.80;100511;;;;567463;252;24128;-80
2022/11/25 08:30:54;;;;;;;32.30;16.70;;;2.70;99.90;1.80;100512;;;;567470;251;25149;-82
2022/11/25 08:33:22;;;;;;;40.43;18.03;;;2.70;99.90;1.70;100508;;;;567511;252;24195;-79
2022/11/25 08:35:55;;;;;;;41.20;19.27;;;2.70;99.90;1.70;100515;;;;567409;251;24141;-78
2022/11/25 08:38:23;;;;;;;53.60;23.20;;;2.70;99.90;1.70;100518;;;;567309;251;24101;-82
2022/11/25 08:40:52;;;;;;;46.20;21.77;;;2.70;99.90;1.80;100519;;;;567259;251;24152;-80
2022/11/25 08:43:20;;;;;;;55.33;22.90;;;2.70;99.90;1.80;100518;;;;567151;252;24148;-79
2022/11/25 08:45:47;;;;;;;48.10;20.60;;;2.70;99.90;1.80;100513;;;;567285;251;24123;-78
2022/11/25 08:48:15;;;;;;;47.20;21.50;;;2.80;99.90;1.90;100522;;;;567094;252;24167;-79
2022/11/25 08:50:45;;;;;;;46.83;20.17;;;2.80;99.90;1.90;100515;;;;567035;252;24184;-78
2022/11/25 08:53:13;;;;;;;49.80;21.93;;;2.90;99.90;1.90;100524;;;;566614;253;24085;-81
2022/11/25 08:55:41;;;;;;;54.53;22.13;;;2.90;99.90;1.90;100528;;;;567053;252;24129;-80
2022/11/25 08:58:12;;;;;;;48.83;21.50;;;2.90;99.90;1.90;100531;;;;567042;252;24116;-79
2022/11/25 09:00:37;;;;;;;47.63;20.63;;;2.90;99.90;1.90;100534;;;;566801;252;24126;-79
2022/11/25 09:03:05;;;;;;;51.27;22.20;;;2.90;99.90;1.90;100533;;;;567019;252;24096;-78
2022/11/25 09:05:36;;;;;;;48.33;21.93;;;2.90;99.90;1.90;100533;;;;567170;252;24105;-78
2022/11/25 09:08:04;;;;;;;50.47;20.73;;;2.90;99.90;2.00;100542;;;;567126;252;24164;-80
2022/11/25 09:10:31;;;;;;;48.83;19.97;;;2.90;99.90;2.00;100545;;;;567084;252;24160;-80
2022/11/25 09:13:00;;;;;;;47.47;18.77;;;3.00;99.90;2.00;100547;;;;567055;249;24219;-83
2022/11/25 09:15:28;;;;;;;35.37;14.57;;;2.90;99.90;2.10;100548;;;;567049;252;24099;-81
2022/11/25 09:17:59;;;;;;;39.30;14.83;;;3.00;99.90;2.10;100541;;;;567187;252;24139;-83
2022/11/25 09:20:27;;;;;;;37.53;13.73;;;3.00;99.90;2.10;100546;;;;554962;257;24152;-80
2022/11/25 09:22:55;;;;;;;42.17;14.57;;;3.00;99.90;2.10;100543;;;;567107;251;24144;-79
2022/11/25 09:25:23;;;;;;;36.80;15.13;;;3.00;99.90;2.10;100536;;;;568152;251;24074;-79
2022/11/25 09:27:55;;;;;;;34.60;13.87;;;3.00;99.90;2.10;100542;;;;568145;251;24105;-78
2022/11/25 09:30:19;;;;;;;38.93;15.47;;;3.00;99.90;2.10;100543;;;;567693;252;24111;-80
2022/11/25 09:32:53;;;;;;;36.77;14.40;;;3.00;99.90;2.10;100546;;;;568248;251;24157;-78
2022/11/25 09:35:18;;;;;;;49.33;16.67;;;3.00;99.90;2.10;100553;;;;567235;252;24206;-78
2022/11/25 09:37:46;;;;;;;44.33;15.93;;;3.00;99.90;2.10;100554;;;;567635;251;24115;-80
2022/11/25 09:40:47;;;;;;;53.67;23.33;;;3.00;99.90;2.10;100554;;;;562714;251;35448;-78
2022/11/25 09:47:02;;;;;;;46.57;16.27;;;3.10;99.90;2.20;100560;;;;567618;253;24148;-78
2022/11/25 09:49:42;;;;;;;44.67;14.90;;;3.10;99.90;2.20;100560;;;;567156;252;24160;-79
2022/11/25 09:52:28;;;;;;;33.77;14.77;;;3.10;99.90;2.20;100559;;;;567252;251;24104;-78
2022/11/25 09:55:11;;;;;;;46.10;20.48;;;3.10;99.90;2.20;100557;;;;562529;251;35343;-78
2022/11/25 09:58:09;;;;;;;41.87;16.47;;;3.10;99.90;2.20;100568;;;;567047;252;24156;-79
2022/11/25 10:00:37;;;;;;;27.53;11.83;;;3.10;99.90;2.20;100566;;;;566918;252;24161;-80
2022/11/25 10:03:30;;;;;;;24.93;10.60;;;3.10;99.90;2.20;100555;;;;566840;251;24101;-79
2022/11/25 10:06:06;;;;;;;24.63;11.53;;;3.20;99.90;2.20;100570;;;;566964;252;24112;-81
2022/11/25 10:08:50;;;;;;;32.73;11.23;;;3.10;99.90;2.20;100572;;;;566501;252;24109;-81
2022/11/25 10:11:23;;;;;;;26.47;11.77;;;3.10;99.90;2.20;100560;;;;566979;252;24133;-78
2022/11/25 10:14:03;;;;;;;25.93;10.90;;;3.10;99.90;2.20;100563;;;;566954;249;24113;-78
2022/11/25 10:17:08;;;;;;;28.57;11.73;;;3.10;99.90;2.20;100566;;;;566830;252;24093;-78
2022/11/25 10:19:53;;;;;;;25.57;10.60;;;3.10;99.90;2.20;100562;;;;567150;251;24128;-80
2022/11/25 10:22:21;;;;;;;20.50;9.37;;;3.10;99.90;2.20;100564;;;;565846;253;24098;-77
2022/11/25 10:24:49;;;;;;;25.03;10.07;;;3.10;99.90;2.20;100560;;;;567407;252;25144;-78
2022/11/25 10:27:38;;;;;;;24.53;10.37;;;3.10;99.90;2.20;100563;;;;566971;251;24130;-80
2022/11/25 10:30:06;;;;;;;25.80;9.97;;;3.10;99.90;2.10;100568;;;;566625;253;24103;-78
2022/11/25 10:32:37;;;;;;;18.40;9.50;;;3.10;99.90;2.10;100572;;;;566343;252;24130;-78
2022/11/25 10:35:05;;;;;;;18.73;9.27;;;3.00;99.90;2.10;100563;;;;566678;252;24114;-78
2022/11/25 10:37:35;;;;;;;15.37;7.87;;;3.00;99.90;2.10;100573;;;;568516;251;24113;-76
2022/11/25 10:40:03;;;;;;;13.27;8.00;;;3.00;99.90;2.10;100574;;;;568016;252;24129;-78
2022/11/25 10:42:31;;;;;;;21.30;8.40;;;3.00;99.90;2.00;100564;;;;568263;251;24091;-84
2022/11/25 10:44:59;;;;;;;11.63;6.87;;;3.00;99.90;2.00;100569;;;;567884;251;24114;-78
2022/11/25 10:47:51;;;;;;;16.00;7.63;;;2.90;99.90;2.00;100570;;;;568018;251;24118;-79
2022/11/25 10:50:33;;;;;;;16.20;8.93;;;2.90;99.90;2.00;100567;;;;567684;251;24141;-78
2022/11/25 10:53:01;;;;;;;21.63;11.07;;;2.90;99.90;2.00;100566;;;;567793;251;24141;-77
2022/11/25 10:55:30;;;;;;;16.63;10.10;;;2.90;99.90;2.00;100563;;;;565432;253;24119;-85
2022/11/25 10:57:57;;;;;;;17.33;11.37;;;2.90;99.90;2.00;100571;;;;555313;249;24133;-80
2022/11/25 11:00:37;;;;;;;15.20;10.17;;;2.90;99.90;2.00;100571;;;;567289;251;24125;-85
2022/11/25 11:03:20;;;;;;;17.37;10.57;;;3.00;99.90;2.10;100573;;;;567233;251;24111;-84
2022/11/25 11:05:48;;;;;;;15.30;9.67;;;3.00;99.90;2.10;100571;;;;567150;252;24166;-79
2022/11/25 11:08:24;;;;;;;19.53;10.50;;;3.00;99.90;2.10;100583;;;;567539;251;24160;-77
2022/11/25 11:11:20;;;;;;;16.67;10.63;;;3.10;99.90;2.10;100570;;;;567098;252;24109;-78
2022/11/25 11:13:49;;;;;;;19.23;11.10;;;3.10;99.90;2.20;100574;;;;567119;249;24195;-77
2022/11/25 11:16:37;;;;;;;14.87;10.37;;;3.10;99.90;2.20;100580;;;;566883;253;24088;-82
2022/11/25 11:19:05;;;;;;;15.07;10.50;;;3.10;99.90;2.30;100578;;;;566978;252;24178;-79
2022/11/25 11:21:33;;;;;;;16.17;11.95;;;3.20;99.90;2.30;100573;;;;562186;252;35355;-84
2022/11/25 11:24:01;;;;;;;11.63;7.37;;;3.20;99.90;2.30;100576;;;;567121;252;24103;-77
2022/11/25 11:26:32;;;;;;;13.13;7.37;;;3.20;99.90;2.30;100572;;;;567679;251;24156;-77
2022/11/25 11:29:04;;;;;;;15.97;8.10;;;3.20;99.90;2.20;100568;;;;567378;251;25155;-76
2022/11/25 11:31:35;;;;;;;13.53;7.67;;;3.20;99.90;2.20;100574;;;;567411;252;24127;-78